Terminal Aerodrome Forecast
Issued by NWS Los Angeles, CA

Home | Current Version | Previous Version | Text Only | Print | Product List | Glossary On
Versions: 1 2 3 4 5 6 7 8 9 10 11 12 13 14 15 16 17
000
FTUS46 KLOX 221700
TAFSMX
TAF
KSMX 221739Z 2218/2318 04014G24KT P6SM SKC
     FM221900 35015G25KT P6SM SKC
     FM230300 34007KT P6SM SKC
     FM231000 02008KT P6SM SKC=

USA.gov is the U.S. government's official web portal to all federal, state and local government web resources and services.